sensor_id;sensor_type;location;lat;lon;timestamp;temperature;humidity
34815;DHT22;21030;53.912;15.214;2023-06-19T00:01:04;37.50;28.50
34815;DHT22;21030;53.912;15.214;2023-06-19T00:03:31;37.20;28.80
34815;DHT22;21030;53.912;15.214;2023-06-19T00:05:58;37.60;28.70
34815;DHT22;21030;53.912;15.214;2023-06-19T00:08:25;37.70;28.50
34815;DHT22;21030;53.912;15.214;2023-06-19T00:10:52;37.50;28.70
34815;DHT22;21030;53.912;15.214;2023-06-19T00:13:20;36.90;28.80
34815;DHT22;21030;53.912;15.214;2023-06-19T00:15:47;36.60;29.30
34815;DHT22;21030;53.912;15.214;2023-06-19T00:18:15;36.80;29.30
34815;DHT22;21030;53.912;15.214;2023-06-19T00:20:44;37.20;29.10
34815;DHT22;21030;53.912;15.214;2023-06-19T00:23:14;37.80;28.60
34815;DHT22;21030;53.912;15.214;2023-06-19T00:25:44;37.90;28.30
34815;DHT22;21030;53.912;15.214;2023-06-19T00:28:12;38.20;28.10
34815;DHT22;21030;53.912;15.214;2023-06-19T00:30:43;38.40;27.80
34815;DHT22;21030;53.912;15.214;2023-06-19T00:33:12;38.30;27.70
34815;DHT22;21030;53.912;15.214;2023-06-19T00:35:41;38.50;27.60
34815;DHT22;21030;53.912;15.214;2023-06-19T00:38:09;38.70;27.50
34815;DHT22;21030;53.912;15.214;2023-06-19T00:40:37;38.80;27.20
34815;DHT22;21030;53.912;15.214;2023-06-19T00:43:06;38.90;27.20
34815;DHT22;21030;53.912;15.214;2023-06-19T00:45:35;38.90;27.00
34815;DHT22;21030;53.912;15.214;2023-06-19T00:48:04;39.00;27.00
34815;DHT22;21030;53.912;15.214;2023-06-19T00:50:33;38.90;27.10
34815;DHT22;21030;53.912;15.214;2023-06-19T00:53:03;38.90;27.00
34815;DHT22;21030;53.912;15.214;2023-06-19T00:55:32;39.00;27.00
34815;DHT22;21030;53.912;15.214;2023-06-19T00:58:02;39.00;27.00
34815;DHT22;21030;53.912;15.214;2023-06-19T01:00:31;38.90;27.00
34815;DHT22;21030;53.912;15.214;2023-06-19T01:02:59;38.70;27.20
34815;DHT22;21030;53.912;15.214;2023-06-19T01:05:28;38.70;27.20
34815;DHT22;21030;53.912;15.214;2023-06-19T01:10:57;38.80;27.20
34815;DHT22;21030;53.912;15.214;2023-06-19T01:13:49;38.80;27.20
34815;DHT22;21030;53.912;15.214;2023-06-19T01:16:18;38.50;27.40
34815;DHT22;21030;53.912;15.214;2023-06-19T01:18:46;38.40;27.50
34815;DHT22;21030;53.912;15.214;2023-06-19T01:21:19;38.50;27.50
34815;DHT22;21030;53.912;15.214;2023-06-19T01:23:47;38.60;27.50
34815;DHT22;21030;53.912;15.214;2023-06-19T01:26:17;38.50;27.40
34815;DHT22;21030;53.912;15.214;2023-06-19T01:28:46;38.20;27.70
34815;DHT22;21030;53.912;15.214;2023-06-19T01:31:35;37.80;28.20
34815;DHT22;21030;53.912;15.214;2023-06-19T01:34:07;37.70;28.30
34815;DHT22;21030;53.912;15.214;2023-06-19T01:36:36;37.80;28.20
34815;DHT22;21030;53.912;15.214;2023-06-19T01:39:05;37.50;28.10
34815;DHT22;21030;53.912;15.214;2023-06-19T01:41:33;37.80;28.10
34815;DHT22;21030;53.912;15.214;2023-06-19T01:44:01;38.00;27.70
34815;DHT22;21030;53.912;15.214;2023-06-19T01:46:29;38.20;27.70
34815;DHT22;21030;53.912;15.214;2023-06-19T01:48:56;37.90;27.90
34815;DHT22;21030;53.912;15.214;2023-06-19T01:51:23;37.60;28.70
34815;DHT22;21030;53.912;15.214;2023-06-19T01:53:51;37.40;28.40
34815;DHT22;21030;53.912;15.214;2023-06-19T01:56:20;36.70;29.20
34815;DHT22;21030;53.912;15.214;2023-06-19T01:58:47;36.50;29.40
34815;DHT22;21030;53.912;15.214;2023-06-19T02:01:16;36.40;29.70
34815;DHT22;21030;53.912;15.214;2023-06-19T02:03:44;36.20;29.80
34815;DHT22;21030;53.912;15.214;2023-06-19T02:06:11;35.80;30.00
34815;DHT22;21030;53.912;15.214;2023-06-19T02:08:39;35.90;29.80
34815;DHT22;21030;53.912;15.214;2023-06-19T02:11:07;36.60;29.60
34815;DHT22;21030;53.912;15.214;2023-06-19T02:13:36;36.70;29.40
34815;DHT22;21030;53.912;15.214;2023-06-19T02:16:06;36.50;29.40
34815;DHT22;21030;53.912;15.214;2023-06-19T02:18:34;36.30;29.60
34815;DHT22;21030;53.912;15.214;2023-06-19T02:21:04;36.70;29.40
34815;DHT22;21030;53.912;15.214;2023-06-19T02:23:33;36.50;29.40
34815;DHT22;21030;53.912;15.214;2023-06-19T02:26:01;36.40;29.20
34815;DHT22;21030;53.912;15.214;2023-06-19T02:28:32;36.10;29.60
34815;DHT22;21030;53.912;15.214;2023-06-19T02:31:00;36.20;29.50
34815;DHT22;21030;53.912;15.214;2023-06-19T02:33:27;36.40;29.60
34815;DHT22;21030;53.912;15.214;2023-06-19T02:35:56;36.70;29.40
34815;DHT22;21030;53.912;15.214;2023-06-19T02:38:27;37.00;29.10
34815;DHT22;21030;53.912;15.214;2023-06-19T02:40:57;37.50;28.40
34815;DHT22;21030;53.912;15.214;2023-06-19T02:43:24;38.00;27.80
34815;DHT22;21030;53.912;15.214;2023-06-19T02:45:51;38.40;27.20
34815;DHT22;21030;53.912;15.214;2023-06-19T02:48:19;38.60;26.90
34815;DHT22;21030;53.912;15.214;2023-06-19T02:50:47;38.70;26.70
34815;DHT22;21030;53.912;15.214;2023-06-19T02:53:14;38.80;26.60
34815;DHT22;21030;53.912;15.214;2023-06-19T02:55:43;38.80;26.70
34815;DHT22;21030;53.912;15.214;2023-06-19T02:58:10;38.70;27.00
34815;DHT22;21030;53.912;15.214;2023-06-19T03:00:39;38.40;27.10
34815;DHT22;21030;53.912;15.214;2023-06-19T03:03:08;38.30;27.30
34815;DHT22;21030;53.912;15.214;2023-06-19T03:05:36;38.10;27.50
34815;DHT22;21030;53.912;15.214;2023-06-19T03:08:03;37.70;27.80
34815;DHT22;21030;53.912;15.214;2023-06-19T03:10:32;37.60;28.00
34815;DHT22;21030;53.912;15.214;2023-06-19T03:13:00;37.80;27.90
34815;DHT22;21030;53.912;15.214;2023-06-19T03:15:28;38.00;27.80
34815;DHT22;21030;53.912;15.214;2023-06-19T03:17:56;38.30;27.60
34815;DHT22;21030;53.912;15.214;2023-06-19T03:20:23;38.50;27.20
34815;DHT22;21030;53.912;15.214;2023-06-19T03:22:51;38.40;27.00
34815;DHT22;21030;53.912;15.214;2023-06-19T03:25:20;38.40;27.00
34815;DHT22;21030;53.912;15.214;2023-06-19T03:27:48;38.70;27.50
34815;DHT22;21030;53.912;15.214;2023-06-19T03:30:15;38.80;26.70
34815;DHT22;21030;53.912;15.214;2023-06-19T03:32:45;38.90;26.50
34815;DHT22;21030;53.912;15.214;2023-06-19T03:35:12;39.00;26.40
34815;DHT22;21030;53.912;15.214;2023-06-19T03:37:39;39.00;26.40
34815;DHT22;21030;53.912;15.214;2023-06-19T03:40:06;39.00;26.50
34815;DHT22;21030;53.912;15.214;2023-06-19T03:42:35;38.90;26.70
34815;DHT22;21030;53.912;15.214;2023-06-19T03:45:03;38.80;26.90
34815;DHT22;21030;53.912;15.214;2023-06-19T03:47:30;38.80;27.00
34815;DHT22;21030;53.912;15.214;2023-06-19T03:49:58;39.00;27.00
34815;DHT22;21030;53.912;15.214;2023-06-19T03:52:45;39.10;26.90
34815;DHT22;21030;53.912;15.214;2023-06-19T03:55:12;39.30;26.90
34815;DHT22;21030;53.912;15.214;2023-06-19T03:57:39;39.30;26.80
34815;DHT22;21030;53.912;15.214;2023-06-19T04:00:06;39.40;26.80
34815;DHT22;21030;53.912;15.214;2023-06-19T04:02:37;39.40;26.90
34815;DHT22;21030;53.912;15.214;2023-06-19T04:05:05;39.50;27.00
34815;DHT22;21030;53.912;15.214;2023-06-19T04:07:33;39.50;27.10
34815;DHT22;21030;53.912;15.214;2023-06-19T04:10:00;39.50;27.00
34815;DHT22;21030;53.912;15.214;2023-06-19T04:12:27;39.60;27.00
34815;DHT22;21030;53.912;15.214;2023-06-19T04:14:54;39.50;27.10
34815;DHT22;21030;53.912;15.214;2023-06-19T04:17:21;39.50;27.00
34815;DHT22;21030;53.912;15.214;2023-06-19T04:19:48;39.50;26.90
34815;DHT22;21030;53.912;15.214;2023-06-19T04:22:15;39.50;27.10
34815;DHT22;21030;53.912;15.214;2023-06-19T04:24:42;39.60;27.10
34815;DHT22;21030;53.912;15.214;2023-06-19T04:27:09;39.80;27.10
34815;DHT22;21030;53.912;15.214;2023-06-19T04:29:37;39.70;26.90
34815;DHT22;21030;53.912;15.214;2023-06-19T04:32:04;39.90;26.90
34815;DHT22;21030;53.912;15.214;2023-06-19T04:34:38;39.90;26.90
34815;DHT22;21030;53.912;15.214;2023-06-19T04:37:05;39.90;27.00
34815;DHT22;21030;53.912;15.214;2023-06-19T04:39:32;39.90;27.00
34815;DHT22;21030;53.912;15.214;2023-06-19T04:42:00;40.00;27.00
34815;DHT22;21030;53.912;15.214;2023-06-19T04:44:27;40.10;26.90
34815;DHT22;21030;53.912;15.214;2023-06-19T04:46:56;40.20;26.90
34815;DHT22;21030;53.912;15.214;2023-06-19T04:49:28;40.10;26.80
34815;DHT22;21030;53.912;15.214;2023-06-19T04:51:58;40.00;27.00
34815;DHT22;21030;53.912;15.214;2023-06-19T04:54:25;40.00;27.00
34815;DHT22;21030;53.912;15.214;2023-06-19T04:56:53;39.80;27.10
34815;DHT22;21030;53.912;15.214;2023-06-19T04:59:20;39.80;27.20
34815;DHT22;21030;53.912;15.214;2023-06-19T05:01:47;40.00;27.40
34815;DHT22;21030;53.912;15.214;2023-06-19T05:04:15;40.00;27.50
34815;DHT22;21030;53.912;15.214;2023-06-19T05:06:42;40.20;27.40
34815;DHT22;21030;53.912;15.214;2023-06-19T05:09:10;40.50;27.20
34815;DHT22;21030;53.912;15.214;2023-06-19T05:11:38;40.60;27.30
34815;DHT22;21030;53.912;15.214;2023-06-19T05:14:05;40.60;27.10
34815;DHT22;21030;53.912;15.214;2023-06-19T05:16:33;40.90;27.20
34815;DHT22;21030;53.912;15.214;2023-06-19T05:19:02;40.50;27.00
34815;DHT22;21030;53.912;15.214;2023-06-19T05:21:29;39.40;27.50
34815;DHT22;21030;53.912;15.214;2023-06-19T05:23:58;38.90;28.30
34815;DHT22;21030;53.912;15.214;2023-06-19T05:26:25;38.90;28.50
34815;DHT22;21030;53.912;15.214;2023-06-19T05:28:53;38.90;28.70
34815;DHT22;21030;53.912;15.214;2023-06-19T05:31:20;38.90;28.60
34815;DHT22;21030;53.912;15.214;2023-06-19T05:33:47;38.40;28.50
34815;DHT22;21030;53.912;15.214;2023-06-19T05:36:13;38.40;28.90
34815;DHT22;21030;53.912;15.214;2023-06-19T05:38:41;38.60;28.90
34815;DHT22;21030;53.912;15.214;2023-06-19T05:41:08;38.60;29.00
34815;DHT22;21030;53.912;15.214;2023-06-19T05:43:35;38.80;29.20
34815;DHT22;21030;53.912;15.214;2023-06-19T05:46:02;39.10;29.10
34815;DHT22;21030;53.912;15.214;2023-06-19T05:48:29;39.50;28.60
34815;DHT22;21030;53.912;15.214;2023-06-19T05:50:56;39.20;28.70
34815;DHT22;21030;53.912;15.214;2023-06-19T05:53:25;39.60;28.60
34815;DHT22;21030;53.912;15.214;2023-06-19T05:55:52;39.60;28.50
34815;DHT22;21030;53.912;15.214;2023-06-19T05:58:19;38.80;28.40
34815;DHT22;21030;53.912;15.214;2023-06-19T06:00:51;38.40;29.30
34815;DHT22;21030;53.912;15.214;2023-06-19T06:03:25;38.70;29.40
34815;DHT22;21030;53.912;15.214;2023-06-19T06:05:52;39.50;28.70
34815;DHT22;21030;53.912;15.214;2023-06-19T06:08:19;39.30;28.70
34815;DHT22;21030;53.912;15.214;2023-06-19T06:10:46;39.80;28.60
34815;DHT22;21030;53.912;15.214;2023-06-19T06:13:13;39.70;28.10
34815;DHT22;21030;53.912;15.214;2023-06-19T06:15:40;39.20;28.40
34815;DHT22;21030;53.912;15.214;2023-06-19T06:18:07;38.80;28.90
34815;DHT22;21030;53.912;15.214;2023-06-19T06:20:34;38.80;29.20
34815;DHT22;21030;53.912;15.214;2023-06-19T06:23:01;39.40;28.80
34815;DHT22;21030;53.912;15.214;2023-06-19T06:25:28;39.40;28.60
34815;DHT22;21030;53.912;15.214;2023-06-19T06:27:55;39.90;28.50
34815;DHT22;21030;53.912;15.214;2023-06-19T06:30:22;40.70;28.20
34815;DHT22;21030;53.912;15.214;2023-06-19T06:32:50;41.20;27.80
34815;DHT22;21030;53.912;15.214;2023-06-19T06:35:18;41.60;26.90
34815;DHT22;21030;53.912;15.214;2023-06-19T06:37:45;41.30;26.80
34815;DHT22;21030;53.912;15.214;2023-06-19T06:40:13;41.20;26.90
34815;DHT22;21030;53.912;15.214;2023-06-19T06:42:40;41.20;26.90
34815;DHT22;21030;53.912;15.214;2023-06-19T06:45:07;41.60;27.00
34815;DHT22;21030;53.912;15.214;2023-06-19T06:47:35;42.00;27.00
34815;DHT22;21030;53.912;15.214;2023-06-19T06:50:02;42.40;26.30
34815;DHT22;21030;53.912;15.214;2023-06-19T06:52:29;42.40;25.80
34815;DHT22;21030;53.912;15.214;2023-06-19T06:54:57;42.90;25.90
34815;DHT22;21030;53.912;15.214;2023-06-19T06:57:24;43.10;25.90
34815;DHT22;21030;53.912;15.214;2023-06-19T06:59:51;43.40;25.50
34815;DHT22;21030;53.912;15.214;2023-06-19T07:02:18;43.20;25.30
34815;DHT22;21030;53.912;15.214;2023-06-19T07:04:45;43.20;25.00
34815;DHT22;21030;53.912;15.214;2023-06-19T07:07:13;42.90;25.00
34815;DHT22;21030;53.912;15.214;2023-06-19T07:09:40;43.30;25.10
34815;DHT22;21030;53.912;15.214;2023-06-19T07:12:07;43.80;25.10
34815;DHT22;21030;53.912;15.214;2023-06-19T07:14:34;44.00;25.00
34815;DHT22;21030;53.912;15.214;2023-06-19T07:17:01;43.80;24.20
34815;DHT22;21030;53.912;15.214;2023-06-19T07:19:28;43.50;24.50
34815;DHT22;21030;53.912;15.214;2023-06-19T07:21:56;44.10;24.70
34815;DHT22;21030;53.912;15.214;2023-06-19T07:24:23;44.50;24.60
34815;DHT22;21030;53.912;15.214;2023-06-19T07:26:50;44.80;23.90
34815;DHT22;21030;53.912;15.214;2023-06-19T07:29:18;44.30;23.80
34815;DHT22;21030;53.912;15.214;2023-06-19T07:31:45;45.00;24.10
34815;DHT22;21030;53.912;15.214;2023-06-19T07:34:12;45.00;23.90
34815;DHT22;21030;53.912;15.214;2023-06-19T07:36:39;44.50;23.40
34815;DHT22;21030;53.912;15.214;2023-06-19T07:39:06;44.40;24.10
34815;DHT22;21030;53.912;15.214;2023-06-19T07:41:33;44.50;24.20
34815;DHT22;21030;53.912;15.214;2023-06-19T07:44:00;44.80;24.10
34815;DHT22;21030;53.912;15.214;2023-06-19T07:46:27;45.00;24.00
34815;DHT22;21030;53.912;15.214;2023-06-19T07:48:54;45.10;23.50
34815;DHT22;21030;53.912;15.214;2023-06-19T07:51:21;46.00;23.60
34815;DHT22;21030;53.912;15.214;2023-06-19T07:53:48;46.30;23.20
34815;DHT22;21030;53.912;15.214;2023-06-19T07:56:15;46.10;22.90
34815;DHT22;21030;53.912;15.214;2023-06-19T07:58:42;46.30;23.40
34815;DHT22;21030;53.912;15.214;2023-06-19T08:01:09;46.20;22.60
34815;DHT22;21030;53.912;15.214;2023-06-19T08:03:37;46.70;22.20
34815;DHT22;21030;53.912;15.214;2023-06-19T08:06:04;46.40;22.90
34815;DHT22;21030;53.912;15.214;2023-06-19T08:08:31;46.20;22.50
34815;DHT22;21030;53.912;15.214;2023-06-19T08:10:58;46.10;22.60
34815;DHT22;21030;53.912;15.214;2023-06-19T08:13:25;46.40;22.80
34815;DHT22;21030;53.912;15.214;2023-06-19T08:15:52;46.60;22.60
34815;DHT22;21030;53.912;15.214;2023-06-19T08:18:20;46.70;22.70
34815;DHT22;21030;53.912;15.214;2023-06-19T08:20:46;46.90;22.10
34815;DHT22;21030;53.912;15.214;2023-06-19T08:23:13;46.40;21.60
34815;DHT22;21030;53.912;15.214;2023-06-19T08:25:40;45.80;22.10
34815;DHT22;21030;53.912;15.214;2023-06-19T08:28:07;45.60;22.00
34815;DHT22;21030;53.912;15.214;2023-06-19T08:30:35;45.60;22.10
34815;DHT22;21030;53.912;15.214;2023-06-19T08:33:02;45.90;22.90
34815;DHT22;21030;53.912;15.214;2023-06-19T08:35:29;46.50;22.40
34815;DHT22;21030;53.912;15.214;2023-06-19T08:37:56;46.40;21.90
34815;DHT22;21030;53.912;15.214;2023-06-19T08:40:23;46.40;21.40
34815;DHT22;21030;53.912;15.214;2023-06-19T08:42:51;47.00;21.50
34815;DHT22;21030;53.912;15.214;2023-06-19T08:45:19;46.60;21.30
34815;DHT22;21030;53.912;15.214;2023-06-19T08:47:48;46.90;21.70
34815;DHT22;21030;53.912;15.214;2023-06-19T08:50:16;47.40;21.00
34815;DHT22;21030;53.912;15.214;2023-06-19T08:52:43;47.40;21.00
34815;DHT22;21030;53.912;15.214;2023-06-19T08:55:10;47.40;20.90
34815;DHT22;21030;53.912;15.214;2023-06-19T08:57:40;47.20;21.10
34815;DHT22;21030;53.912;15.214;2023-06-19T09:00:08;47.50;21.60
34815;DHT22;21030;53.912;15.214;2023-06-19T09:02:42;48.10;21.20
34815;DHT22;21030;53.912;15.214;2023-06-19T09:05:15;47.50;20.70
34815;DHT22;21030;53.912;15.214;2023-06-19T09:07:43;47.90;20.80
34815;DHT22;21030;53.912;15.214;2023-06-19T09:10:16;48.20;20.20
34815;DHT22;21030;53.912;15.214;2023-06-19T09:12:44;48.80;21.10
34815;DHT22;21030;53.912;15.214;2023-06-19T09:15:12;48.40;19.80
34815;DHT22;21030;53.912;15.214;2023-06-19T09:17:40;48.10;19.60
34815;DHT22;21030;53.912;15.214;2023-06-19T09:20:08;48.10;19.80
34815;DHT22;21030;53.912;15.214;2023-06-19T09:22:35;48.00;20.10
34815;DHT22;21030;53.912;15.214;2023-06-19T09:25:02;48.10;19.80
34815;DHT22;21030;53.912;15.214;2023-06-19T09:27:33;48.40;20.10
34815;DHT22;21030;53.912;15.214;2023-06-19T09:30:00;48.60;20.30
34815;DHT22;21030;53.912;15.214;2023-06-19T09:32:28;49.00;19.80
34815;DHT22;21030;53.912;15.214;2023-06-19T09:34:57;48.90;20.00
34815;DHT22;21030;53.912;15.214;2023-06-19T09:37:30;48.60;20.00
34815;DHT22;21030;53.912;15.214;2023-06-19T09:40:02;48.70;19.80
34815;DHT22;21030;53.912;15.214;2023-06-19T09:42:41;49.40;19.80
34815;DHT22;21030;53.912;15.214;2023-06-19T09:45:12;49.50;19.30
34815;DHT22;21030;53.912;15.214;2023-06-19T09:47:43;48.80;19.30
34815;DHT22;21030;53.912;15.214;2023-06-19T09:50:14;49.30;20.00
34815;DHT22;21030;53.912;15.214;2023-06-19T09:52:43;49.90;19.80
34815;DHT22;21030;53.912;15.214;2023-06-19T09:55:11;49.90;19.20
34815;DHT22;21030;53.912;15.214;2023-06-19T09:57:43;50.30;19.40
34815;DHT22;21030;53.912;15.214;2023-06-19T10:00:11;50.60;19.10
34815;DHT22;21030;53.912;15.214;2023-06-19T10:02:41;50.70;19.30
34815;DHT22;21030;53.912;15.214;2023-06-19T10:05:09;50.60;18.70
34815;DHT22;21030;53.912;15.214;2023-06-19T10:07:42;50.80;19.20
34815;DHT22;21030;53.912;15.214;2023-06-19T10:10:12;51.20;19.40
34815;DHT22;21030;53.912;15.214;2023-06-19T10:12:44;51.90;18.90
34815;DHT22;21030;53.912;15.214;2023-06-19T10:15:13;52.10;18.40
34815;DHT22;21030;53.912;15.214;2023-06-19T10:18:06;51.90;18.40
34815;DHT22;21030;53.912;15.214;2023-06-19T10:20:38;51.20;18.30
34815;DHT22;21030;53.912;15.214;2023-06-19T10:23:23;51.40;18.70
34815;DHT22;21030;53.912;15.214;2023-06-19T10:28:32;50.00;18.70
34815;DHT22;21030;53.912;15.214;2023-06-19T10:31:03;49.50;19.00
34815;DHT22;21030;53.912;15.214;2023-06-19T10:33:36;49.50;19.70
34815;DHT22;21030;53.912;15.214;2023-06-19T10:36:17;49.00;19.80
34815;DHT22;21030;53.912;15.214;2023-06-19T10:38:45;48.60;20.20
34815;DHT22;21030;53.912;15.214;2023-06-19T10:41:18;48.30;19.80
34815;DHT22;21030;53.912;15.214;2023-06-19T10:44:00;48.30;20.20
34815;DHT22;21030;53.912;15.214;2023-06-19T10:46:33;48.10;20.10
34815;DHT22;21030;53.912;15.214;2023-06-19T10:49:01;48.60;20.10
34815;DHT22;21030;53.912;15.214;2023-06-19T10:51:33;48.50;20.00
34815;DHT22;21030;53.912;15.214;2023-06-19T10:54:01;48.00;19.80
34815;DHT22;21030;53.912;15.214;2023-06-19T10:56:28;47.40;20.10
34815;DHT22;21030;53.912;15.214;2023-06-19T10:59:08;47.00;20.40
34815;DHT22;21030;53.912;15.214;2023-06-19T11:01:38;46.80;20.30
34815;DHT22;21030;53.912;15.214;2023-06-19T11:04:07;46.50;20.70
34815;DHT22;21030;53.912;15.214;2023-06-19T11:06:35;47.30;20.50
34815;DHT22;21030;53.912;15.214;2023-06-19T11:09:06;46.90;19.50
34815;DHT22;21030;53.912;15.214;2023-06-19T11:11:46;47.80;19.90
34815;DHT22;21030;53.912;15.214;2023-06-19T11:14:14;47.70;19.30
34815;DHT22;21030;53.912;15.214;2023-06-19T11:16:46;47.80;19.30
34815;DHT22;21030;53.912;15.214;2023-06-19T11:19:19;47.80;18.90
34815;DHT22;21030;53.912;15.214;2023-06-19T11:21:48;47.80;19.00
34815;DHT22;21030;53.912;15.214;2023-06-19T11:24:16;47.70;19.30
34815;DHT22;21030;53.912;15.214;2023-06-19T11:26:45;48.10;19.50
34815;DHT22;21030;53.912;15.214;2023-06-19T11:29:30;48.10;19.10
34815;DHT22;21030;53.912;15.214;2023-06-19T11:32:08;48.20;19.00
34815;DHT22;21030;53.912;15.214;2023-06-19T11:34:40;48.90;18.70
34815;DHT22;21030;53.912;15.214;2023-06-19T11:37:15;49.10;17.90
34815;DHT22;21030;53.912;15.214;2023-06-19T11:39:46;49.00;18.20
34815;DHT22;21030;53.912;15.214;2023-06-19T11:42:14;49.00;18.10
34815;DHT22;21030;53.912;15.214;2023-06-19T11:45:03;48.50;18.30
34815;DHT22;21030;53.912;15.214;2023-06-19T11:47:33;48.20;18.90
34815;DHT22;21030;53.912;15.214;2023-06-19T11:50:03;48.50;18.80
34815;DHT22;21030;53.912;15.214;2023-06-19T11:52:30;48.60;18.90
34815;DHT22;21030;53.912;15.214;2023-06-19T11:54:57;47.90;19.00
34815;DHT22;21030;53.912;15.214;2023-06-19T11:57:24;47.50;19.30
34815;DHT22;21030;53.912;15.214;2023-06-19T11:59:51;46.40;20.00
34815;DHT22;21030;53.912;15.214;2023-06-19T12:02:18;45.70;20.30
34815;DHT22;21030;53.912;15.214;2023-06-19T12:04:45;44.70;21.10
34815;DHT22;21030;53.912;15.214;2023-06-19T12:07:12;44.60;21.60
34815;DHT22;21030;53.912;15.214;2023-06-19T12:09:39;44.30;21.80
34815;DHT22;21030;53.912;15.214;2023-06-19T12:12:07;44.40;22.10
34815;DHT22;21030;53.912;15.214;2023-06-19T12:14:34;44.80;21.60
34815;DHT22;21030;53.912;15.214;2023-06-19T12:17:01;45.30;21.30
34815;DHT22;21030;53.912;15.214;2023-06-19T12:19:28;45.70;21.20
34815;DHT22;21030;53.912;15.214;2023-06-19T12:21:55;45.60;21.10
34815;DHT22;21030;53.912;15.214;2023-06-19T12:24:22;46.40;21.20
34815;DHT22;21030;53.912;15.214;2023-06-19T12:26:49;46.50;20.60
34815;DHT22;21030;53.912;15.214;2023-06-19T12:29:16;46.80;20.20
34815;DHT22;21030;53.912;15.214;2023-06-19T12:31:43;47.20;20.00
34815;DHT22;21030;53.912;15.214;2023-06-19T12:34:11;46.30;20.00
34815;DHT22;21030;53.912;15.214;2023-06-19T12:36:56;46.40;20.40
34815;DHT22;21030;53.912;15.214;2023-06-19T12:39:24;47.10;20.50
34815;DHT22;21030;53.912;15.214;2023-06-19T12:41:52;47.30;20.30
34815;DHT22;21030;53.912;15.214;2023-06-19T12:44:21;47.80;20.30
34815;DHT22;21030;53.912;15.214;2023-06-19T12:46:48;48.20;20.30
34815;DHT22;21030;53.912;15.214;2023-06-19T12:49:15;48.60;20.30
34815;DHT22;21030;53.912;15.214;2023-06-19T12:51:42;48.70;19.60
34815;DHT22;21030;53.912;15.214;2023-06-19T12:54:09;49.00;19.80
34815;DHT22;21030;53.912;15.214;2023-06-19T12:56:36;49.20;19.50
34815;DHT22;21030;53.912;15.214;2023-06-19T12:59:03;48.70;19.10
34815;DHT22;21030;53.912;15.214;2023-06-19T13:01:30;48.30;19.00
34815;DHT22;21030;53.912;15.214;2023-06-19T13:03:57;47.90;19.00
34815;DHT22;21030;53.912;15.214;2023-06-19T13:06:24;47.10;19.80
34815;DHT22;21030;53.912;15.214;2023-06-19T13:08:51;46.70;19.90
34815;DHT22;21030;53.912;15.214;2023-06-19T13:11:18;46.50;20.40
34815;DHT22;21030;53.912;15.214;2023-06-19T13:13:45;47.00;20.40
34815;DHT22;21030;53.912;15.214;2023-06-19T13:16:12;47.10;20.70
34815;DHT22;21030;53.912;15.214;2023-06-19T13:18:40;47.10;20.60
34815;DHT22;21030;53.912;15.214;2023-06-19T13:21:08;47.10;20.40
34815;DHT22;21030;53.912;15.214;2023-06-19T13:23:35;47.30;20.30
34815;DHT22;21030;53.912;15.214;2023-06-19T13:26:02;47.50;19.50
34815;DHT22;21030;53.912;15.214;2023-06-19T13:28:29;47.60;20.20
34815;DHT22;21030;53.912;15.214;2023-06-19T13:30:56;47.60;19.60
34815;DHT22;21030;53.912;15.214;2023-06-19T13:33:23;47.00;20.30
34815;DHT22;21030;53.912;15.214;2023-06-19T13:35:50;47.20;20.90
34815;DHT22;21030;53.912;15.214;2023-06-19T13:38:17;47.00;20.30
34815;DHT22;21030;53.912;15.214;2023-06-19T13:40:44;46.80;20.80
34815;DHT22;21030;53.912;15.214;2023-06-19T13:43:14;46.80;20.60
34815;DHT22;21030;53.912;15.214;2023-06-19T13:45:41;46.80;20.60
34815;DHT22;21030;53.912;15.214;2023-06-19T13:48:09;46.70;20.50
34815;DHT22;21030;53.912;15.214;2023-06-19T13:50:36;46.20;21.00
34815;DHT22;21030;53.912;15.214;2023-06-19T13:53:06;46.00;20.60
34815;DHT22;21030;53.912;15.214;2023-06-19T13:55:33;45.20;20.60
34815;DHT22;21030;53.912;15.214;2023-06-19T13:58:00;44.00;21.00
34815;DHT22;21030;53.912;15.214;2023-06-19T14:00:27;43.70;21.70
34815;DHT22;21030;53.912;15.214;2023-06-19T14:02:54;43.70;21.80
34815;DHT22;21030;53.912;15.214;2023-06-19T14:05:21;43.60;21.70
34815;DHT22;21030;53.912;15.214;2023-06-19T14:07:49;43.70;22.20
34815;DHT22;21030;53.912;15.214;2023-06-19T14:10:16;44.20;22.00
34815;DHT22;21030;53.912;15.214;2023-06-19T14:12:43;44.20;21.80
34815;DHT22;21030;53.912;15.214;2023-06-19T14:15:10;43.90;22.00
34815;DHT22;21030;53.912;15.214;2023-06-19T14:17:37;43.50;22.20
34815;DHT22;21030;53.912;15.214;2023-06-19T14:20:05;42.60;22.40
34815;DHT22;21030;53.912;15.214;2023-06-19T14:22:32;42.70;22.50
34815;DHT22;21030;53.912;15.214;2023-06-19T14:25:02;42.60;22.70
34815;DHT22;21030;53.912;15.214;2023-06-19T14:27:29;42.00;22.70
34815;DHT22;21030;53.912;15.214;2023-06-19T14:29:56;42.30;22.90
34815;DHT22;21030;53.912;15.214;2023-06-19T14:32:23;42.30;22.90
34815;DHT22;21030;53.912;15.214;2023-06-19T14:34:51;42.80;22.80
34815;DHT22;21030;53.912;15.214;2023-06-19T14:37:18;42.80;22.80
34815;DHT22;21030;53.912;15.214;2023-06-19T14:39:45;42.90;22.90
34815;DHT22;21030;53.912;15.214;2023-06-19T14:42:12;43.20;22.70
34815;DHT22;21030;53.912;15.214;2023-06-19T14:44:39;42.70;22.60
34815;DHT22;21030;53.912;15.214;2023-06-19T14:47:06;42.60;22.90
34815;DHT22;21030;53.912;15.214;2023-06-19T14:49:33;42.60;23.10
34815;DHT22;21030;53.912;15.214;2023-06-19T14:52:00;42.60;22.90
34815;DHT22;21030;53.912;15.214;2023-06-19T14:54:27;42.80;23.00
34815;DHT22;21030;53.912;15.214;2023-06-19T14:56:54;43.20;23.30
34815;DHT22;21030;53.912;15.214;2023-06-19T14:59:21;42.80;23.30
34815;DHT22;21030;53.912;15.214;2023-06-19T15:01:48;42.60;24.60
34815;DHT22;21030;53.912;15.214;2023-06-19T15:04:15;42.90;25.70
34815;DHT22;21030;53.912;15.214;2023-06-19T15:06:43;43.10;26.80
34815;DHT22;21030;53.912;15.214;2023-06-19T15:09:10;43.30;27.30
34815;DHT22;21030;53.912;15.214;2023-06-19T15:11:37;43.40;27.20
34815;DHT22;21030;53.912;15.214;2023-06-19T15:14:04;43.30;27.30
34815;DHT22;21030;53.912;15.214;2023-06-19T15:16:31;43.40;27.40
34815;DHT22;21030;53.912;15.214;2023-06-19T15:19:01;43.70;27.50
34815;DHT22;21030;53.912;15.214;2023-06-19T15:21:28;43.80;27.40
34815;DHT22;21030;53.912;15.214;2023-06-19T15:23:55;44.10;27.70
34815;DHT22;21030;53.912;15.214;2023-06-19T15:26:22;44.10;27.70
34815;DHT22;21030;53.912;15.214;2023-06-19T15:28:50;44.10;27.80